• Join FlightAware (Why Join?)
  • Login
  • US Flag 
05:07PM EDT


 

Airport Tracker/Info


-or-


 

Live Flight TrackerFlight Track Log ✈ LBQ652 ✈ 17-Aug-2013 ✈ KIXD - KSUS

Flight Track Log - Related Links

Times and Time Zones

All times are in EDT time to prevent confusion due to time zone crossing. See the LBQ652 flight status page for this flight to view local times or setup timezone preferences in your user account.

Time Position Orientation Groundspeed Altitude Reporting Facility
EDT Latitude Longitude Course Direction KTS MPH feet Rate Location/Type
05:02AM 38.7833 -94.8667 91° East 170 196 3,800  Level Kansas City TRACON
05:04AM 38.7821 -94.7535 North  Level Estimated
05:11AM 39.2148 -94.5363 115° Southeast  Level FlightAware Approximate
05:12AM 39.1833 -94.4419 90° East  Level FlightAware Approximate
05:13AM 39.1543 -94.3462 113° Southeast  Level FlightAware Approximate
05:14AM 39.1240 -94.2505 110° East  Level FlightAware Approximate
05:15AM 39.0957 -94.1538 113° Southeast  Level FlightAware Approximate
05:16AM 39.0795 -94.0540 94° East  Level FlightAware Approximate
05:17AM 39.0732 -93.9510 94° East  Level FlightAware Approximate
05:18AM 39.0668 -93.8481 95° East  Level FlightAware Approximate
05:19AM 39.0603 -93.7452 95° East  Level FlightAware Approximate
05:20AM 39.0538 -93.6423 95° East  Level FlightAware Approximate
05:21AM 39.0471 -93.5394 95° East  Level FlightAware Approximate
05:22AM 39.0403 -93.4365 95° East  Level FlightAware Approximate
05:23AM 39.0335 -93.3337 95° East  Level FlightAware Approximate
05:24AM 39.0265 -93.2309 95° East  Level FlightAware Approximate
05:25AM 39.0195 -93.1281 95° East  Level FlightAware Approximate
05:26AM 39.0124 -93.0253 95° East  Level FlightAware Approximate
05:27AM 39.0051 -92.9225 95° East  Level FlightAware Approximate
05:28AM 38.9928 -92.8211 108° East  Level FlightAware Approximate
05:29AM 38.9682 -92.7229 108° East  Level FlightAware Approximate
05:30AM 38.9390 -92.6269 112° Southeast  Level FlightAware Approximate
05:31AM 38.9094 -92.5311 112° Southeast  Level FlightAware Approximate
05:32AM 38.8797 -92.4354 112° Southeast  Level FlightAware Approximate
05:33AM 38.8499 -92.3398 112° Southeast  Level FlightAware Approximate
05:34AM 38.8201 -92.2443 112° Southeast  Level FlightAware Approximate
05:35AM 38.7991 -92.1527 95° East  Level FlightAware Approximate
05:36AM 38.7928 -92.0502 95° East  Level FlightAware Approximate
05:37AM 38.7864 -91.9477 95° East  Level FlightAware Approximate
05:38AM 38.7761 -91.8457 100° East  Level FlightAware Approximate
05:39AM 38.7626 -91.7444 100° East  Level FlightAware Approximate
05:40AM 38.7500 -91.6430 90° East  Level FlightAware Approximate
05:41AM 38.7429 -91.5406 96° East  Level FlightAware Approximate
05:42AM 38.7350 -91.4383 96° East  Level FlightAware Approximate
05:43AM 38.7272 -91.3360 96° East  Level FlightAware Approximate
05:44AM 38.7193 -91.2337 96° East  Level FlightAware Approximate
05:45AM 38.6982 -91.1357 99° East  Level FlightAware Approximate
05:46AM 38.6855 -91.0343 99° East  Level FlightAware Approximate
05:47AM 38.6833 -90.9318 90° East  Level FlightAware Approximate
05:48AM 38.6667 -90.8324 90° East  Level FlightAware Approximate
05:49AM 38.6667 -90.7297 90° East  Level FlightAware Approximate
05:50AM 38.6500 -90.6500 108° East  Level FlightAware Approximate
05:51AM 38.6621 -90.6521 108° East  Level Estimated
05:52AM 38.6621 -90.6521 108° East  Level Estimated
05:53AM 38.6621 -90.6521 108° East  Level Estimated
05:54AM 38.6621 -90.6521 108° East  Level Estimated
05:55AM 38.6621 -90.6521 108° East  Level Estimated
05:56AM 38.6621 -90.6521 108° East  Level Estimated
05:57AM 38.6621 -90.6521 108° East  Level Estimated
05:58AM 38.6621 -90.6521 108° East  Level Estimated
05:59AM 38.6621 -90.6521 108° East  Level Estimated
06:00AM 38.6621 -90.6521 108° East  Level Estimated
06:01AM 38.6621 -90.6521 108° East  Level Estimated
06:02AM 38.6621 -90.6521 108° East  Level Estimated
06:03AM 38.6621 -90.6521 108° East  Level Estimated
06:04AM 38.6621 -90.6521 108° East  Level Estimated
06:05AM 38.6621 -90.6521 108° East  Level Estimated